Time;durP1;ratioP1;P1;durP2;ratioP2;P2;SDS_P1;SDS_P2;PMS_P1;PMS_P2;Temp;Humidity;BMP_temperature;BMP_pressure;BME280_temperature;BME280_humidity;BME280_pressure;Samples;Min_cycle;Max_cycle;Signal;HPM_P1;HPM_P2
2023/07/04 00:02:22;;;;;;;6.17;2.30;;;12.30;99.90;;;;;;4995799;28;20700;-79
2023/07/04 00:04:49;;;;;;;6.40;2.70;;;12.20;99.90;;;;;;4983221;28;20241;-79
2023/07/04 00:07:16;;;;;;;7.33;2.50;;;12.20;99.90;;;;;;4985705;28;20244;-79
2023/07/04 00:09:43;;;;;;;5.93;2.13;;;12.20;99.90;;;;;;4985502;28;20313;-79
2023/07/04 00:12:10;;;;;;;6.60;2.47;;;12.20;99.90;;;;;;4981324;28;20229;-80
2023/07/04 00:14:37;;;;;;;4.10;2.10;;;12.10;99.90;;;;;;4991364;28;20228;-80
2023/07/04 00:17:05;;;;;;;3.67;2.10;;;12.10;99.90;;;;;;4999829;28;20281;-79
2023/07/04 00:19:33;;;;;;;5.33;2.20;;;12.10;99.90;;;;;;4982088;28;20251;-80
2023/07/04 00:22:04;;;;;;;5.10;2.20;;;12.10;99.90;;;;;;4998074;28;20757;-80
2023/07/04 00:24:31;;;;;;;6.57;2.50;;;12.10;99.90;;;;;;4979123;28;20290;-80
2023/07/04 00:26:57;;;;;;;7.67;2.50;;;12.10;99.90;;;;;;4978084;28;20228;-79
2023/07/04 00:29:24;;;;;;;5.10;2.47;;;12.00;99.90;;;;;;4981968;28;20306;-79
2023/07/04 00:31:51;;;;;;;6.40;2.30;;;12.00;99.90;;;;;;4978737;28;20239;-80
2023/07/04 00:34:20;;;;;;;6.80;2.50;;;12.00;99.90;;;;;;4976916;28;20838;-79
2023/07/04 00:36:49;;;;;;;5.30;2.47;;;12.00;99.90;;;;;;4980485;28;20276;-80
2023/07/04 00:39:16;;;;;;;5.87;2.33;;;12.00;99.90;;;;;;4979262;28;20880;-79
2023/07/04 00:41:43;;;;;;;6.63;2.30;;;12.00;99.90;;;;;;4982763;28;20242;-80
2023/07/04 00:44:22;;;;;;;4.77;2.10;;;12.00;99.90;;;;;;4985852;28;20236;-79
2023/07/04 00:46:54;;;;;;;7.30;2.40;;;12.00;99.90;;;;;;4981624;28;20255;-80
2023/07/04 00:49:26;;;;;;;6.13;2.20;;;11.90;99.90;;;;;;4983134;28;20226;-80
2023/07/04 00:52:02;;;;;;;4.40;2.20;;;11.90;99.90;;;;;;4979921;28;20256;-80
2023/07/04 00:54:34;;;;;;;6.37;2.40;;;11.90;99.90;;;;;;4982772;28;20621;-80
2023/07/04 00:57:04;;;;;;;8.20;2.10;;;12.00;99.90;;;;;;4978756;28;20710;-80
2023/07/04 00:59:33;;;;;;;6.23;2.30;;;12.00;99.90;;;;;;4979867;28;20310;-79
2023/07/04 01:02:00;;;;;;;3.47;2.10;;;12.00;99.90;;;;;;4977701;28;20235;-80
2023/07/04 01:04:28;;;;;;;4.93;2.10;;;12.00;99.90;;;;;;4982341;28;20222;-79
2023/07/04 01:07:06;;;;;;;4.30;1.90;;;12.00;99.90;;;;;;4985658;28;20954;-79
2023/07/04 01:09:33;;;;;;;5.73;2.37;;;11.90;99.90;;;;;;4977775;28;20317;-79
2023/07/04 01:12:02;;;;;;;5.33;1.87;;;11.90;99.90;;;;;;4979353;28;20313;-80
2023/07/04 01:14:29;;;;;;;4.73;2.07;;;11.90;99.90;;;;;;5018399;23;20235;-77
2023/07/04 01:16:56;;;;;;;3.80;1.67;;;11.90;99.90;;;;;;5035208;28;20227;-77
2023/07/04 01:19:28;;;;;;;5.60;2.33;;;11.90;99.90;;;;;;5042118;28;20832;-77
2023/07/04 01:22:07;;;;;;;3.27;1.50;;;11.90;99.90;;;;;;5041323;28;20219;-78
2023/07/04 01:24:44;;;;;;;3.90;1.60;;;11.80;99.90;;;;;;5033143;28;20262;-78
2023/07/04 01:27:15;;;;;;;6.93;1.80;;;11.80;99.90;;;;;;5050348;28;20219;-77
2023/07/04 01:29:42;;;;;;;3.33;1.60;;;11.90;99.90;;;;;;5048751;28;20229;-78
2023/07/04 01:32:10;;;;;;;3.50;1.53;;;11.90;99.90;;;;;;5040622;28;20274;-77
2023/07/04 01:34:38;;;;;;;6.23;1.90;;;11.90;99.90;;;;;;5039705;28;20248;-77
2023/07/04 01:37:06;;;;;;;4.73;1.90;;;11.90;99.90;;;;;;5044932;28;20307;-78
2023/07/04 01:39:33;;;;;;;5.30;1.80;;;11.90;99.90;;;;;;5046062;28;20236;-78
2023/07/04 01:42:05;;;;;;;5.27;2.10;;;11.80;99.90;;;;;;5042314;28;20225;-77
2023/07/04 01:44:33;;;;;;;5.80;1.60;;;11.80;99.90;;;;;;5044204;28;20230;-78
2023/07/04 01:47:02;;;;;;;4.13;1.80;;;11.90;99.90;;;;;;5042013;28;20244;-78
2023/07/04 01:49:29;;;;;;;2.63;1.63;;;11.80;99.90;;;;;;5040583;28;20227;-78
2023/07/04 01:51:56;;;;;;;3.03;1.73;;;11.80;99.90;;;;;;5041714;28;20222;-78
2023/07/04 01:54:22;;;;;;;6.27;1.60;;;11.80;99.90;;;;;;5040995;28;20231;-77
2023/07/04 01:56:52;;;;;;;3.67;1.73;;;11.80;99.90;;;;;;5040448;28;20225;-78
2023/07/04 01:59:19;;;;;;;4.47;1.70;;;11.80;99.90;;;;;;5041678;28;20727;-77
2023/07/04 02:01:48;;;;;;;4.70;1.70;;;11.80;99.90;;;;;;5040162;28;20220;-78
2023/07/04 02:04:16;;;;;;;5.00;2.00;;;11.80;99.90;;;;;;5040179;28;20208;-77
2023/07/04 02:06:43;;;;;;;4.23;1.50;;;11.80;99.90;;;;;;5038469;28;20216;-77
2023/07/04 02:09:10;;;;;;;6.97;2.00;;;11.80;99.90;;;;;;5037181;28;20231;-77
2023/07/04 02:11:37;;;;;;;5.07;2.20;;;11.80;99.90;;;;;;5038400;28;20221;-77
2023/07/04 02:14:03;;;;;;;4.07;1.60;;;11.70;99.90;;;;;;5042799;28;20712;-77
2023/07/04 02:16:30;;;;;;;5.77;1.87;;;11.70;99.90;;;;;;5041404;28;20220;-77
2023/07/04 02:18:59;;;;;;;5.20;1.77;;;11.70;99.90;;;;;;5040210;28;21199;-77
2023/07/04 02:21:27;;;;;;;7.57;2.03;;;11.70;99.90;;;;;;5042267;28;20659;-77
2023/07/04 02:23:54;;;;;;;5.80;1.67;;;11.70;99.90;;;;;;5040123;28;20218;-77
2023/07/04 02:26:21;;;;;;;3.43;1.57;;;11.70;99.90;;;;;;5044893;28;20227;-77
2023/07/04 02:28:48;;;;;;;3.50;1.57;;;11.60;99.90;;;;;;5043447;28;20595;-77
2023/07/04 02:31:15;;;;;;;5.23;2.00;;;11.60;99.90;;;;;;5040056;28;20300;-77
2023/07/04 02:33:41;;;;;;;6.83;1.90;;;11.60;99.90;;;;;;5044500;28;20314;-77
2023/07/04 02:36:11;;;;;;;4.67;1.83;;;11.60;99.90;;;;;;5040496;28;20220;-78
2023/07/04 02:38:39;;;;;;;7.40;2.00;;;11.50;99.90;;;;;;5041864;28;20224;-77
2023/07/04 02:41:08;;;;;;;4.37;2.07;;;11.50;99.90;;;;;;5038436;28;20224;-76
2023/07/04 02:43:36;;;;;;;5.03;2.10;;;11.50;99.90;;;;;;5043615;28;20750;-76
2023/07/04 02:46:05;;;;;;;4.50;1.70;;;11.50;99.90;;;;;;5039067;28;20241;-77
2023/07/04 02:48:32;;;;;;;4.90;1.90;;;11.40;99.90;;;;;;5022772;28;20227;-76
2023/07/04 02:51:00;;;;;;;7.97;1.97;;;11.40;99.90;;;;;;5030661;28;20309;-76
2023/07/04 02:53:29;;;;;;;7.83;2.03;;;11.40;99.90;;;;;;5041286;28;20696;-75
2023/07/04 02:55:56;;;;;;;5.30;1.60;;;11.40;99.90;;;;;;5047962;28;20231;-75
2023/07/04 02:58:26;;;;;;;4.73;1.73;;;11.40;99.90;;;;;;5051367;28;20294;-76
2023/07/04 03:00:53;;;;;;;4.20;1.83;;;11.30;99.90;;;;;;5048589;28;20220;-76
2023/07/04 03:03:22;;;;;;;4.97;1.83;;;11.30;99.90;;;;;;5042076;28;20683;-76
2023/07/04 03:05:51;;;;;;;4.97;1.63;;;11.20;99.90;;;;;;5047097;28;20308;-76
2023/07/04 03:08:18;;;;;;;6.73;1.97;;;11.20;99.90;;;;;;5044566;28;20217;-76
2023/07/04 03:10:47;;;;;;;9.03;1.80;;;11.20;99.90;;;;;;5043897;28;20249;-76
2023/07/04 03:13:17;;;;;;;5.87;1.70;;;11.10;99.90;;;;;;5041176;28;20220;-76
2023/07/04 03:15:45;;;;;;;4.13;1.80;;;11.10;99.90;;;;;;5041786;28;20261;-76
2023/07/04 03:18:12;;;;;;;3.73;1.57;;;11.10;99.90;;;;;;5042180;28;20219;-76
2023/07/04 03:20:40;;;;;;;7.07;2.23;;;11.10;99.90;;;;;;5068494;28;20234;-76
2023/07/04 03:23:08;;;;;;;6.07;1.83;;;11.10;99.90;;;;;;5043571;28;20212;-75
2023/07/04 03:25:35;;;;;;;5.07;1.60;;;11.20;99.90;;;;;;5046216;28;20228;-76
2023/07/04 03:28:04;;;;;;;11.10;2.13;;;11.10;99.90;;;;;;5044452;28;20216;-76
2023/07/04 03:30:31;;;;;;;6.37;2.17;;;11.10;99.90;;;;;;5041819;28;20232;-76
2023/07/04 03:33:08;;;;;;;6.83;2.27;;;11.20;99.90;;;;;;5041580;28;20304;-76
2023/07/04 03:35:38;;;;;;;6.57;2.47;;;11.20;99.90;;;;;;5029501;28;20235;-76
2023/07/04 03:38:05;;;;;;;6.70;2.50;;;11.20;99.90;;;;;;5035657;28;20229;-76
2023/07/04 03:40:32;;;;;;;5.90;2.97;;;11.30;99.90;;;;;;5041594;28;20741;-76
2023/07/04 03:42:58;;;;;;;6.70;2.70;;;11.30;99.90;;;;;;5041828;28;20212;-76
2023/07/04 03:45:26;;;;;;;8.83;3.07;;;11.30;99.90;;;;;;5037386;28;20308;-76
2023/07/04 03:47:54;;;;;;;7.77;3.20;;;11.30;99.90;;;;;;5046897;28;20786;-76
2023/07/04 03:50:20;;;;;;;6.20;3.57;;;11.30;99.90;;;;;;5043639;28;20246;-76
2023/07/04 03:52:47;;;;;;;4.43;3.20;;;11.40;99.90;;;;;;5039241;28;20259;-76
2023/07/04 03:55:14;;;;;;;7.40;3.83;;;11.40;99.90;;;;;;5040324;28;20224;-76
2023/07/04 03:57:41;;;;;;;6.03;3.40;;;11.40;99.90;;;;;;5043431;28;20886;-76
2023/07/04 04:00:10;;;;;;;6.37;3.60;;;11.40;99.90;;;;;;5037950;28;21567;-75
2023/07/04 04:02:57;;;;;;;7.37;3.60;;;11.40;99.90;;;;;;5043553;28;20264;-76
2023/07/04 04:05:23;;;;;;;8.13;3.37;;;11.50;99.90;;;;;;5043415;28;24561;-76
2023/07/04 04:07:50;;;;;;;7.33;3.67;;;11.50;99.90;;;;;;5040576;28;20227;-76
2023/07/04 04:10:18;;;;;;;5.00;3.23;;;11.50;99.90;;;;;;5043182;28;20216;-76
2023/07/04 04:12:45;;;;;;;8.20;3.90;;;11.50;99.90;;;;;;5042490;28;20231;-75
2023/07/04 04:15:12;;;;;;;6.37;3.37;;;11.60;99.90;;;;;;5039842;28;20224;-75
2023/07/04 04:17:39;;;;;;;6.70;3.50;;;11.60;99.90;;;;;;5044022;28;20690;-75
2023/07/04 04:20:09;;;;;;;8.03;3.27;;;11.70;99.90;;;;;;5043869;28;20231;-76
2023/07/04 04:22:36;;;;;;;4.97;3.43;;;11.70;99.90;;;;;;5043145;28;20277;-75
2023/07/04 04:25:03;;;;;;;5.03;3.10;;;11.80;99.90;;;;;;5039480;28;20221;-76
2023/07/04 04:27:31;;;;;;;6.83;3.80;;;11.80;99.90;;;;;;5042022;28;20227;-75
2023/07/04 04:29:58;;;;;;;7.43;3.63;;;11.80;99.90;;;;;;5041297;28;20874;-75
2023/07/04 04:32:25;;;;;;;8.47;3.37;;;11.80;99.90;;;;;;5037851;28;20221;-75
2023/07/04 04:34:53;;;;;;;10.67;4.20;;;11.90;99.90;;;;;;5044614;28;20313;-75
2023/07/04 04:37:23;;;;;;;6.17;3.37;;;11.90;99.90;;;;;;5043278;28;20222;-76
2023/07/04 04:39:50;;;;;;;8.33;3.63;;;11.90;99.90;;;;;;5041717;28;20254;-75
2023/07/04 04:42:17;;;;;;;6.33;3.70;;;12.00;99.90;;;;;;5033737;28;20895;-76
2023/07/04 04:44:43;;;;;;;6.40;3.20;;;12.00;99.90;;;;;;5034782;28;20224;-75
2023/07/04 04:47:12;;;;;;;8.30;3.20;;;12.00;99.90;;;;;;5020980;28;20218;-75
2023/07/04 04:49:40;;;;;;;9.50;3.20;;;12.10;99.90;;;;;;5019102;28;20265;-76
2023/07/04 04:52:07;;;;;;;6.00;3.00;;;12.10;99.90;;;;;;5017514;28;20862;-75
2023/07/04 04:54:35;;;;;;;6.33;2.77;;;12.10;99.90;;;;;;5043301;28;20221;-76
2023/07/04 04:57:02;;;;;;;8.53;3.10;;;12.10;99.90;;;;;;5039748;28;20265;-77
2023/07/04 04:59:29;;;;;;;6.90;2.90;;;12.20;99.90;;;;;;5041404;28;20276;-76
2023/07/04 05:01:55;;;;;;;5.63;2.53;;;12.20;99.90;;;;;;5035457;28;20761;-76
2023/07/04 05:04:23;;;;;;;6.87;2.60;;;12.20;99.90;;;;;;5045380;28;20313;-76
2023/07/04 05:06:50;;;;;;;9.10;2.67;;;12.20;99.90;;;;;;5039545;28;20948;-76
2023/07/04 05:09:17;;;;;;;9.10;2.73;;;12.20;99.90;;;;;;5042523;28;20224;-74
2023/07/04 05:11:45;;;;;;;9.43;2.97;;;12.30;99.90;;;;;;5065833;28;20237;-75
2023/07/04 05:14:12;;;;;;;9.20;2.80;;;12.30;99.90;;;;;;5038189;28;20220;-75
2023/07/04 05:16:38;;;;;;;9.60;3.00;;;12.40;99.90;;;;;;5041959;28;20227;-75
2023/07/04 05:19:05;;;;;;;8.23;3.20;;;12.40;99.90;;;;;;5034893;28;20230;-75
2023/07/04 05:21:32;;;;;;;6.67;2.77;;;12.40;99.90;;;;;;5037445;28;20225;-75
2023/07/04 05:24:00;;;;;;;7.43;2.70;;;12.50;99.90;;;;;;5039116;28;20281;-75
2023/07/04 05:26:28;;;;;;;9.30;2.97;;;12.50;99.90;;;;;;5036924;28;20231;-75
2023/07/04 05:28:58;;;;;;;7.73;2.43;;;12.50;99.90;;;;;;5039491;28;20233;-75
2023/07/04 05:31:26;;;;;;;6.13;2.40;;;12.50;99.90;;;;;;5039577;28;20223;-74
2023/07/04 05:33:54;;;;;;;6.23;2.73;;;12.60;99.90;;;;;;5042647;28;20226;-75
2023/07/04 05:36:23;;;;;;;7.03;2.70;;;12.60;99.90;;;;;;5036551;28;20251;-75
2023/07/04 05:38:51;;;;;;;8.03;2.80;;;12.70;99.90;;;;;;5041736;28;20221;-75
2023/07/04 05:41:19;;;;;;;6.10;2.33;;;12.70;99.90;;;;;;5042279;28;20216;-75
2023/07/04 05:43:46;;;;;;;7.57;2.67;;;12.80;99.90;;;;;;5040800;28;20230;-75
2023/07/04 05:46:16;;;;;;;8.97;2.60;;;12.80;99.90;;;;;;5069145;28;20232;-75
2023/07/04 05:48:44;;;;;;;13.73;3.23;;;12.90;99.90;;;;;;5037947;28;20311;-75
2023/07/04 05:51:12;;;;;;;6.43;2.63;;;12.90;99.90;;;;;;5040799;28;20223;-74
2023/07/04 05:53:41;;;;;;;5.17;2.57;;;13.00;99.90;;;;;;5039978;28;20231;-75
2023/07/04 05:56:09;;;;;;;9.60;2.87;;;13.10;99.90;;;;;;5044428;28;20234;-75
2023/07/04 05:58:38;;;;;;;5.70;2.73;;;13.10;99.90;;;;;;5038818;28;20698;-75
2023/07/04 06:01:06;;;;;;;6.40;3.00;;;13.20;99.90;;;;;;5032051;28;20235;-75
2023/07/04 06:03:34;;;;;;;7.90;3.10;;;13.30;99.90;;;;;;5032105;28;20697;-75
2023/07/04 06:06:02;;;;;;;11.83;3.60;;;13.40;99.90;;;;;;5044754;28;20233;-75
2023/07/04 06:08:29;;;;;;;8.50;3.03;;;13.40;99.90;;;;;;5043868;28;20226;-74
2023/07/04 06:11:00;;;;;;;6.17;3.17;;;13.50;99.90;;;;;;5041768;28;20240;-75
2023/07/04 06:13:27;;;;;;;7.40;2.80;;;13.50;99.90;;;;;;5040586;28;20232;-78
2023/07/04 06:15:53;;;;;;;6.90;3.03;;;13.60;99.90;;;;;;5038787;28;20239;-75
2023/07/04 06:18:20;;;;;;;6.57;2.83;;;13.70;99.90;;;;;;5028343;23;20842;-77
2023/07/04 06:20:48;;;;;;;8.93;3.27;;;13.70;99.90;;;;;;5004966;28;20233;-78
2023/07/04 06:23:15;;;;;;;5.93;2.60;;;13.80;99.90;;;;;;5003787;28;20583;-78
2023/07/04 06:25:42;;;;;;;6.73;2.53;;;13.90;99.90;;;;;;5003517;28;20729;-78
2023/07/04 06:28:12;;;;;;;4.53;2.67;;;14.10;99.90;;;;;;5000966;28;20225;-79
2023/07/04 06:30:39;;;;;;;7.03;2.40;;;14.20;99.90;;;;;;5004981;28;20245;-79
2023/07/04 06:33:06;;;;;;;6.47;2.10;;;14.40;99.90;;;;;;5003563;28;20251;-79
2023/07/04 06:35:34;;;;;;;4.33;2.33;;;14.50;99.90;;;;;;5014617;28;20228;-80
2023/07/04 06:38:05;;;;;;;8.40;2.40;;;14.70;99.90;;;;;;5002058;28;20265;-80
2023/07/04 06:40:32;;;;;;;6.57;2.20;;;14.80;99.90;;;;;;5005317;23;20231;-76
2023/07/04 06:42:58;;;;;;;7.33;2.30;;;14.90;99.90;;;;;;4994897;22;20316;-80
2023/07/04 06:45:25;;;;;;;8.13;2.47;;;15.00;99.90;;;;;;4988152;28;20248;-78
2023/07/04 06:47:55;;;;;;;3.77;2.23;;;15.10;99.90;;;;;;4985365;28;20225;-79
2023/07/04 06:50:25;;;;;;;4.97;2.03;;;15.20;99.90;;;;;;4990919;22;20251;-76
2023/07/04 06:52:53;;;;;;;3.70;1.80;;;15.30;99.90;;;;;;4998841;28;20235;-79
2023/07/04 06:55:22;;;;;;;6.93;2.10;;;15.40;99.90;;;;;;5002046;23;20225;-80
2023/07/04 06:57:50;;;;;;;5.23;2.30;;;15.60;99.90;;;;;;5010521;28;20688;-79
2023/07/04 07:00:17;;;;;;;5.80;2.20;;;15.70;99.90;;;;;;5008592;22;20214;-79
2023/07/04 07:02:48;;;;;;;4.77;2.37;;;16.00;99.90;;;;;;4985906;23;20235;-79
2023/07/04 07:05:15;;;;;;;4.67;1.83;;;16.20;99.90;;;;;;4978307;23;20273;-79
2023/07/04 07:07:41;;;;;;;5.80;1.70;;;16.40;99.90;;;;;;4970065;28;20949;-79
2023/07/04 07:10:09;;;;;;;5.47;2.13;;;16.70;99.90;;;;;;4965974;28;20638;-80
2023/07/04 07:12:37;;;;;;;7.83;2.40;;;16.90;99.90;;;;;;4963778;28;20629;-81
2023/07/04 07:15:04;;;;;;;7.33;2.10;;;17.00;99.90;;;;;;4959040;28;20483;-80
2023/07/04 07:17:35;;;;;;;5.57;1.87;;;17.10;99.90;;;;;;4962914;28;20305;-80
2023/07/04 07:20:02;;;;;;;6.93;1.80;;;17.20;99.90;;;;;;4962250;28;20238;-80
2023/07/04 07:22:29;;;;;;;7.70;2.17;;;17.30;99.90;;;;;;4961332;28;20777;-80
2023/07/04 07:24:56;;;;;;;6.83;1.90;;;17.40;99.90;;;;;;4968445;28;20848;-79
2023/07/04 07:27:31;;;;;;;4.47;2.10;;;17.60;99.90;;;;;;4967193;28;20223;-77
2023/07/04 07:30:00;;;;;;;3.20;1.57;;;17.80;99.90;;;;;;4963476;28;20577;-77
2023/07/04 07:32:26;;;;;;;5.53;1.70;;;17.90;99.90;;;;;;4981675;28;20662;-80
2023/07/04 07:34:53;;;;;;;4.17;1.90;;;18.00;99.90;;;;;;4963582;28;20307;-80
2023/07/04 07:37:20;;;;;;;6.45;2.30;;;18.10;99.90;;;;;;4975961;28;21126;-80
2023/07/04 07:39:49;;;;;;;4.28;1.90;;;18.20;99.90;;;;;;5001341;23;20220;-80
2023/07/04 07:42:16;;;;;;;4.80;1.70;;;18.20;99.90;;;;;;4995523;23;20305;-79
2023/07/04 07:44:43;;;;;;;6.10;1.87;;;18.20;99.90;;;;;;4972216;28;20289;-79
2023/07/04 07:47:12;;;;;;;4.25;1.60;;;18.20;99.90;;;;;;4967190;28;20222;-80
2023/07/04 07:49:39;;;;;;;3.97;1.70;;;18.20;99.90;;;;;;4967224;28;20224;-79
2023/07/04 07:52:07;;;;;;;3.47;1.60;;;18.20;99.90;;;;;;4961857;28;20226;-75
2023/07/04 07:54:35;;;;;;;7.87;1.93;;;18.30;99.90;;;;;;4959829;28;20596;-77
2023/07/04 07:57:06;;;;;;;4.25;1.65;;;18.30;99.90;;;;;;4962127;28;20226;-79
2023/07/04 07:59:33;;;;;;;4.67;1.73;;;18.40;99.90;;;;;;4971519;28;20261;-80
2023/07/04 08:02:04;;;;;;;3.60;1.77;;;18.50;99.90;;;;;;4963711;28;20655;-79
2023/07/04 08:04:33;;;;;;;5.03;1.52;;;18.60;99.90;;;;;;4965342;28;20223;-79
2023/07/04 08:07:00;;;;;;;4.47;1.48;;;18.70;99.90;;;;;;4968724;28;20326;-80
2023/07/04 08:09:27;;;;;;;4.30;1.80;;;18.90;99.90;;;;;;4965802;28;20659;-80
2023/07/04 08:11:55;;;;;;;5.40;2.20;;;19.10;99.90;;;;;;4967347;28;20219;-78
2023/07/04 08:14:21;;;;;;;3.72;1.63;;;19.40;99.90;;;;;;4982005;23;20254;-80
2023/07/04 08:16:50;;;;;;;6.35;1.90;;;19.60;99.90;;;;;;5027636;28;20224;-80
2023/07/04 08:19:18;;;;;;;4.72;1.60;;;19.80;99.90;;;;;;5029761;28;20894;-80
2023/07/04 08:21:47;;;;;;;4.05;1.95;;;20.10;99.90;;;;;;5026960;28;20229;-81
2023/07/04 08:24:15;;;;;;;6.35;2.08;;;20.40;99.90;;;;;;5030919;28;20252;-80
2023/07/04 08:26:44;;;;;;;5.07;1.88;;;20.80;99.90;;;;;;5033227;28;20220;-80
2023/07/04 08:29:11;;;;;;;4.38;1.70;;;21.10;99.90;;;;;;5028473;28;20859;-81
2023/07/04 08:31:38;;;;;;;3.35;1.77;;;21.30;99.10;;;;;;5026675;28;20663;-81
2023/07/04 08:34:05;;;;;;;4.38;1.80;;;21.40;98.90;;;;;;5031578;28;20223;-81
2023/07/04 08:36:37;;;;;;;4.72;1.58;;;21.50;97.90;;;;;;5026791;28;20224;-81
2023/07/04 08:39:05;;;;;;;2.47;1.50;;;21.50;98.10;;;;;;5022991;28;20220;-80
2023/07/04 08:41:42;;;;;;;3.50;1.60;;;21.60;97.70;;;;;;5043179;28;20224;-80
2023/07/04 08:44:14;;;;;;;5.75;1.77;;;21.60;97.10;;;;;;4991527;22;20304;-80
2023/07/04 08:46:44;;;;;;;6.22;1.67;;;21.50;96.80;;;;;;5018716;22;20263;-79
2023/07/04 08:49:25;;;;;;;4.72;1.80;;;21.30;96.70;;;;;;5024160;28;20221;-79
2023/07/04 08:51:58;;;;;;;3.40;1.50;;;21.20;97.00;;;;;;5024226;28;20574;-79
2023/07/04 08:54:29;;;;;;;4.97;1.80;;;21.20;97.40;;;;;;5021952;28;20778;-79
2023/07/04 08:57:00;;;;;;;4.03;1.63;;;21.20;97.20;;;;;;5024731;28;20233;-79
2023/07/04 08:59:37;;;;;;;3.20;1.52;;;21.30;97.40;;;;;;5017636;23;20750;-77
2023/07/04 09:02:18;;;;;;;4.47;1.30;;;21.50;97.10;;;;;;4946922;28;20215;-79
2023/07/04 09:04:53;;;;;;;8.18;1.55;;;21.60;95.50;;;;;;4942531;28;20231;-81
2023/07/04 09:07:29;;;;;;;2.70;1.40;;;21.70;96.70;;;;;;4945347;28;20222;-80
2023/07/04 09:10:09;;;;;;;2.97;1.30;;;21.70;96.00;;;;;;4944378;28;20663;-80
2023/07/04 09:12:38;;;;;;;3.67;1.55;;;21.80;96.80;;;;;;4947892;28;20231;-80
2023/07/04 09:15:14;;;;;;;4.10;1.40;;;21.80;95.40;;;;;;4947543;28;20274;-80
2023/07/04 09:17:47;;;;;;;2.78;1.40;;;21.80;95.50;;;;;;4984880;23;20312;-80
2023/07/04 09:20:17;;;;;;;3.45;1.27;;;21.80;95.40;;;;;;5001712;22;20308;-80
2023/07/04 09:22:44;;;;;;;2.40;1.35;;;21.70;95.70;;;;;;5010681;28;20316;-80
2023/07/04 09:25:13;;;;;;;5.00;1.40;;;21.60;95.80;;;;;;5006072;28;20233;-80
2023/07/04 09:27:40;;;;;;;2.75;1.10;;;21.50;95.70;;;;;;5005917;28;20311;-80
2023/07/04 09:30:09;;;;;;;3.50;1.35;;;21.40;95.60;;;;;;5010417;28;20271;-80
2023/07/04 09:32:37;;;;;;;4.43;1.35;;;21.40;96.10;;;;;;5022972;28;20592;-80
2023/07/04 09:35:07;;;;;;;3.15;1.30;;;21.40;96.70;;;;;;5008132;28;20229;-80
2023/07/04 09:37:55;;;;;;;5.05;1.55;;;21.50;95.70;;;;;;5007006;28;20226;-79
2023/07/04 09:40:40;;;;;;;4.07;1.30;;;21.50;95.40;;;;;;5006502;28;20228;-79
2023/07/04 09:43:12;;;;;;;3.58;1.40;;;21.50;94.90;;;;;;5007234;28;20262;-80
2023/07/04 09:45:39;;;;;;;1.98;1.27;;;21.50;96.50;;;;;;5011915;28;20622;-79
2023/07/04 09:48:08;;;;;;;2.50;1.40;;;21.40;97.20;;;;;;5006208;28;20218;-80
2023/07/04 09:50:37;;;;;;;4.25;1.30;;;21.20;97.80;;;;;;5005833;28;20218;-79
2023/07/04 09:53:09;;;;;;;2.63;1.20;;;21.00;97.00;;;;;;5008992;28;20229;-79
2023/07/04 09:55:38;;;;;;;1.80;1.30;;;20.90;96.70;;;;;;5006488;28;20225;-79
2023/07/04 09:58:20;;;;;;;4.03;1.65;;;20.80;96.10;;;;;;5004843;28;20249;-79
2023/07/04 10:01:00;;;;;;;3.80;1.52;;;20.60;95.70;;;;;;4998169;28;20230;-79
2023/07/04 10:03:27;;;;;;;4.75;1.40;;;20.50;97.00;;;;;;5003359;28;20229;-80
2023/07/04 10:05:54;;;;;;;4.05;1.70;;;20.50;97.10;;;;;;5009063;28;20229;-79
2023/07/04 10:08:21;;;;;;;4.13;1.35;;;20.70;96.30;;;;;;5008734;28;20225;-80
2023/07/04 10:10:53;;;;;;;4.57;1.48;;;20.80;96.10;;;;;;4984586;23;20566;-80
2023/07/04 10:13:23;;;;;;;5.60;1.40;;;21.00;95.20;;;;;;4983031;28;20305;-79
2023/07/04 10:15:52;;;;;;;3.92;1.30;;;21.00;95.20;;;;;;4971277;28;20770;-80
2023/07/04 10:18:30;;;;;;;1.80;1.20;;;21.00;95.40;;;;;;4985200;28;20245;-80
2023/07/04 10:20:59;;;;;;;2.55;1.05;;;20.90;95.00;;;;;;4983300;28;20219;-80
2023/07/04 10:23:30;;;;;;;4.10;1.20;;;20.90;95.60;;;;;;4979810;28;20270;-80
2023/07/04 10:26:00;;;;;;;2.67;1.00;;;21.00;95.70;;;;;;4983162;28;20218;-80
2023/07/04 10:28:29;;;;;;;2.83;1.45;;;21.20;95.20;;;;;;5018935;23;20238;-80
2023/07/04 10:30:59;;;;;;;2.17;1.10;;;21.40;95.20;;;;;;5018045;23;20222;-79
2023/07/04 10:33:32;;;;;;;1.92;1.30;;;21.60;95.10;;;;;;5005297;22;20295;-79
2023/07/04 10:36:00;;;;;;;3.08;1.35;;;21.90;95.10;;;;;;5003162;28;20849;-81
2023/07/04 10:38:36;;;;;;;3.45;1.30;;;22.20;93.80;;;;;;5006556;28;20615;-80
2023/07/04 10:41:15;;;;;;;1.67;1.00;;;22.20;92.40;;;;;;5001843;28;20224;-80
2023/07/04 10:43:56;;;;;;;3.38;1.40;;;22.20;91.20;;;;;;4999055;28;20224;-80
2023/07/04 10:46:25;;;;;;;2.45;1.10;;;22.10;91.40;;;;;;4989404;28;20313;-80
2023/07/04 10:48:58;;;;;;;4.63;1.23;;;22.00;91.40;;;;;;5019625;23;20249;-79
2023/07/04 10:51:30;;;;;;;1.70;0.90;;;21.80;91.30;;;;;;5001062;28;20236;-79
2023/07/04 10:53:57;;;;;;;2.53;0.90;;;21.60;89.20;;;;;;5000623;28;20236;-79
2023/07/04 10:56:30;;;;;;;3.63;0.95;;;21.50;91.00;;;;;;4979405;28;20240;-79
2023/07/04 10:59:06;;;;;;;6.10;0.90;;;21.40;90.50;;;;;;5001538;28;20252;-79
2023/07/04 11:01:38;;;;;;;2.22;0.90;;;21.40;90.50;;;;;;4975924;28;20649;-79
2023/07/04 11:04:10;;;;;;;1.45;0.77;;;21.50;90.10;;;;;;5008277;28;20228;-79
2023/07/04 11:06:42;;;;;;;4.07;1.25;;;21.50;90.20;;;;;;5006205;23;20225;-79
2023/07/04 11:09:13;;;;;;;2.20;0.80;;;21.50;88.20;;;;;;5011204;28;20213;-80
2023/07/04 11:11:46;;;;;;;1.73;0.85;;;21.70;86.80;;;;;;4997426;23;20723;-80
2023/07/04 11:14:19;;;;;;;1.40;0.75;;;21.70;86.40;;;;;;4986172;23;20226;-78
2023/07/04 11:16:46;;;;;;;1.42;0.82;;;21.70;87.30;;;;;;4986495;23;20624;-79
2023/07/04 11:19:20;;;;;;;2.33;1.10;;;21.80;87.30;;;;;;4990880;28;20639;-78
2023/07/04 11:22:16;;;;;;;2.47;0.82;;;21.90;85.60;;;;;;4987675;28;20226;-79
2023/07/04 11:24:52;;;;;;;2.22;1.08;;;22.00;86.10;;;;;;4998731;28;20304;-78
2023/07/04 11:27:24;;;;;;;1.83;0.80;;;22.10;87.30;;;;;;4976699;28;20697;-78
2023/07/04 11:29:54;;;;;;;3.75;0.95;;;22.10;85.60;;;;;;4981315;28;20221;-79
2023/07/04 11:32:25;;;;;;;0.90;0.70;;;22.10;85.70;;;;;;4976607;28;20241;-79
2023/07/04 11:34:54;;;;;;;1.83;0.60;;;21.90;81.00;;;;;;4980210;28;20237;-78
2023/07/04 11:37:30;;;;;;;1.92;0.70;;;21.70;81.10;;;;;;4980005;28;20834;-78
2023/07/04 11:39:59;;;;;;;2.20;0.93;;;21.40;80.40;;;;;;4985079;28;20806;-79
2023/07/04 11:42:38;;;;;;;1.75;0.60;;;21.00;80.00;;;;;;4987930;22;20820;-78
2023/07/04 11:45:08;;;;;;;2.65;0.85;;;20.60;79.20;;;;;;4985178;28;20228;-79
2023/07/04 11:47:44;;;;;;;1.95;0.80;;;20.30;80.80;;;;;;4990352;28;20260;-78
2023/07/04 11:50:16;;;;;;;0.82;0.80;;;19.90;82.30;;;;;;5005940;28;20218;-79
2023/07/04 11:52:51;;;;;;;1.67;0.83;;;19.60;83.60;;;;;;4989580;28;20699;-79
2023/07/04 11:55:23;;;;;;;1.13;0.77;;;19.40;85.00;;;;;;4992798;28;20233;-79
2023/07/04 11:58:00;;;;;;;1.90;0.80;;;19.20;86.30;;;;;;4987877;28;20225;-79
2023/07/04 12:00:56;;;;;;;1.73;0.70;;;18.90;86.60;;;;;;4982674;28;20304;-79
2023/07/04 12:03:48;;;;;;;1.50;0.70;;;18.70;86.70;;;;;;4977832;28;20233;-79
2023/07/04 12:06:36;;;;;;;2.50;1.10;;;18.50;87.90;;;;;;4981834;23;20242;-79
2023/07/04 12:09:03;;;;;;;1.47;0.70;;;18.30;88.20;;;;;;4983871;28;20226;-78
2023/07/04 12:11:42;;;;;;;0.93;0.60;;;18.20;89.70;;;;;;4975407;28;21216;-79
2023/07/04 12:14:14;;;;;;;1.53;0.70;;;18.10;90.20;;;;;;4985873;28;20491;-79
2023/07/04 12:16:42;;;;;;;1.43;0.60;;;17.90;90.40;;;;;;4969384;28;20235;-79
2023/07/04 12:19:15;;;;;;;3.73;0.70;;;17.80;90.60;;;;;;4969829;28;20253;-79
2023/07/04 12:21:42;;;;;;;1.87;0.60;;;17.70;91.10;;;;;;4973155;28;20568;-78
2023/07/04 12:24:09;;;;;;;0.93;0.60;;;17.60;91.90;;;;;;4976664;28;20253;-79
2023/07/04 12:26:36;;;;;;;1.37;0.83;;;17.60;92.40;;;;;;4983529;23;20232;-80
2023/07/04 12:29:05;;;;;;;1.37;0.80;;;17.70;92.10;;;;;;5004765;28;20225;-79
2023/07/04 12:31:33;;;;;;;1.47;0.80;;;17.80;92.60;;;;;;5000103;28;20754;-78
2023/07/04 12:33:59;;;;;;;0.90;0.60;;;18.10;92.70;;;;;;5012914;28;20312;-80
2023/07/04 12:36:33;;;;;;;1.40;0.70;;;18.30;92.30;;;;;;5029602;28;20308;-80
2023/07/04 12:39:02;;;;;;;1.00;0.60;;;18.60;92.00;;;;;;5003058;28;20287;-79
2023/07/04 12:41:31;;;;;;;1.53;0.80;;;18.80;91.40;;;;;;4985637;28;20241;-79
2023/07/04 12:44:00;;;;;;;1.87;0.80;;;18.90;91.40;;;;;;4985136;23;20734;-80
2023/07/04 12:46:29;;;;;;;0.70;0.53;;;19.00;91.20;;;;;;4964931;28;20788;-79
2023/07/04 12:48:59;;;;;;;1.00;0.70;;;19.00;91.10;;;;;;4962840;28;20228;-79
2023/07/04 12:51:29;;;;;;;1.00;0.70;;;19.00;90.40;;;;;;4963268;28;20231;-79
2023/07/04 12:53:57;;;;;;;1.40;0.77;;;18.90;90.70;;;;;;4963789;28;20261;-79
2023/07/04 12:56:24;;;;;;;1.57;0.67;;;18.90;90.90;;;;;;4981213;23;20245;-80
2023/07/04 12:58:51;;;;;;;0.83;0.60;;;18.80;91.10;;;;;;5014060;28;20228;-80